Garcia del Cid — EHUU — position and weather

sailwx.info

Track history (hours):
 
Tides and Currents Weather Stations Pressure Air Temp Water Temp Dewpoint Dewpoint Depression Visibility Wind Speed Wind Dir Waves Ship Positions

Oceanographic research ship Garcia del Cid (Spain)

Detailed information on ship capabilities available from University of Delaware's Ocean Information Center.

Last reported at 2019-Apr-12 17:14 UTC. Time now 2019-Apr-24 21:50 UTC.
Position N 42°14' W 008°44'.
Warning: this ship's position is 12 days out of date.

Length 30 m; draft 4.8 m.

Type: Dredging. MMSI: 224799000.

Date/timePositionNaut miles runAvg speedWind from/ knotsBaromVisibWave heightAir tempDewpointWater temp
2019-Apr-12 17:14N 42°14' W 008°44'0 0.0
2019-Apr-12 15:44N 42°14' W 008°44'0 0.0
2019-Apr-12 00:33N 42°14' W 008°44'0 2.2
2019-Apr-12 00:30N 42°14' W 008°44'2 4.3
2019-Apr-11 23:59N 42°14' W 008°47'4 8.6
2019-Apr-11 23:30N 42°11' W 008°51'4 8.3
2019-Apr-11 23:00N 42°09' W 008°56'4 8.3
2019-Apr-11 22:30N 42°05' W 008°58'182 8.3
2019-Apr-11 00:44N 39°08' W 009°51'2 7.5
2019-Apr-11 00:29N 39°06' W 009°51'4 7.5
2019-Apr-11 00:00N 39°02' W 009°51'4 7.6
2019-Apr-10 23:30N 38°59' W 009°51'4 7.5
2019-Apr-10 23:00N 38°55' W 009°51'4 7.6
2019-Apr-10 22:31N 38°51' W 009°51'4 7.5
2019-Apr-10 22:00N 38°47' W 009°51'4 7.4
2019-Apr-10 21:30N 38°44' W 009°51'4 7.3
2019-Apr-10 21:00N 38°40' W 009°50'4 7.3
2019-Apr-10 20:30N 38°36' W 009°49'4 7.2
2019-Apr-10 20:00N 38°33' W 009°48'4 7.2
2019-Apr-10 19:30N 38°29' W 009°47'4 7.3
2019-Apr-10 19:00N 38°26' W 009°46'4 7.3
2019-Apr-10 18:30N 38°22' W 009°45'4 7.3
2019-Apr-10 18:00N 38°19' W 009°44'4 7.4
2019-Apr-10 17:30N 38°15' W 009°43'  
2019-Apr-05 00:45N 39°44' E 002°26'8 8.8
2019-Apr-04 23:49N 39°48' E 002°36'3 9.1
2019-Apr-04 23:30N 39°50' E 002°39'  
Track history (hours):
 
Tides and Currents Weather Stations Pressure Air Temp Water Temp Dewpoint Dewpoint Depression Visibility Wind Speed Wind Dir Waves Ship Positions

Oceanographic research ship Garcia del Cid (Spain)

Detailed information on ship capabilities available from University of Delaware's Ocean Information Center.

Last reported at 2019-Apr-12 17:14 UTC. Time now 2019-Apr-24 21:50 UTC.
Position N 42°14' W 008°44'.
Warning: this ship's position is 12 days out of date.

Length 30 m; draft 4.8 m.

Type: Dredging. MMSI: 224799000.

Date/timePositionNaut miles runAvg speedWind from/ knotsBaromVisibWave heightAir tempDewpointWater temp
2019-Apr-12 17:14N 42°14' W 008°44'0 0.0
2019-Apr-12 15:44N 42°14' W 008°44'0 0.0
2019-Apr-12 00:33N 42°14' W 008°44'0 2.2
2019-Apr-12 00:30N 42°14' W 008°44'2 4.3
2019-Apr-11 23:59N 42°14' W 008°47'4 8.6
2019-Apr-11 23:30N 42°11' W 008°51'4 8.3
2019-Apr-11 23:00N 42°09' W 008°56'4 8.3
2019-Apr-11 22:30N 42°05' W 008°58'182 8.3
2019-Apr-11 00:44N 39°08' W 009°51'2 7.5
2019-Apr-11 00:29N 39°06' W 009°51'4 7.5
2019-Apr-11 00:00N 39°02' W 009°51'4 7.6
2019-Apr-10 23:30N 38°59' W 009°51'4 7.5
2019-Apr-10 23:00N 38°55' W 009°51'4 7.6
2019-Apr-10 22:31N 38°51' W 009°51'4 7.5
2019-Apr-10 22:00N 38°47' W 009°51'4 7.4
2019-Apr-10 21:30N 38°44' W 009°51'4 7.3
2019-Apr-10 21:00N 38°40' W 009°50'4 7.3
2019-Apr-10 20:30N 38°36' W 009°49'4 7.2
2019-Apr-10 20:00N 38°33' W 009°48'4 7.2
2019-Apr-10 19:30N 38°29' W 009°47'4 7.3
2019-Apr-10 19:00N 38°26' W 009°46'4 7.3
2019-Apr-10 18:30N 38°22' W 009°45'4 7.3
2019-Apr-10 18:00N 38°19' W 009°44'4 7.4
2019-Apr-10 17:30N 38°15' W 009°43'  
2019-Apr-05 00:45N 39°44' E 002°26'8 8.8
2019-Apr-04 23:49N 39°48' E 002°36'3 9.1
2019-Apr-04 23:30N 39°50' E 002°39'  

Dump ship's entire track history